sensor_id;sensor_type;location;lat;lon;timestamp;P1;durP1;ratioP1;P2;durP2;ratioP2
17696;SDS011;8967;47.984;7.842;2023-01-08T00:02:09;4.65;;;3.00;;
17696;SDS011;8967;47.984;7.842;2023-01-08T00:04:36;4.43;;;3.03;;
17696;SDS011;8967;47.984;7.842;2023-01-08T00:07:03;4.03;;;2.92;;
17696;SDS011;8967;47.984;7.842;2023-01-08T00:09:32;6.07;;;3.38;;
17696;SDS011;8967;47.984;7.842;2023-01-08T00:12:01;4.55;;;2.70;;
17696;SDS011;8967;47.984;7.842;2023-01-08T00:14:28;4.37;;;2.97;;
17696;SDS011;8967;47.984;7.842;2023-01-08T00:16:55;3.95;;;2.53;;
17696;SDS011;8967;47.984;7.842;2023-01-08T00:19:22;5.10;;;2.40;;
17696;SDS011;8967;47.984;7.842;2023-01-08T00:21:49;6.07;;;2.53;;
17696;SDS011;8967;47.984;7.842;2023-01-08T00:24:16;2.75;;;2.40;;
17696;SDS011;8967;47.984;7.842;2023-01-08T00:26:45;4.13;;;2.33;;
17696;SDS011;8967;47.984;7.842;2023-01-08T00:29:13;3.55;;;2.35;;
17696;SDS011;8967;47.984;7.842;2023-01-08T00:31:40;3.47;;;2.28;;
17696;SDS011;8967;47.984;7.842;2023-01-08T00:34:07;4.60;;;2.67;;
17696;SDS011;8967;47.984;7.842;2023-01-08T00:36:34;3.58;;;2.50;;
17696;SDS011;8967;47.984;7.842;2023-01-08T00:39:01;3.35;;;2.25;;
17696;SDS011;8967;47.984;7.842;2023-01-08T00:41:28;4.15;;;2.42;;
17696;SDS011;8967;47.984;7.842;2023-01-08T00:43:55;5.18;;;2.65;;
17696;SDS011;8967;47.984;7.842;2023-01-08T00:46:25;3.42;;;2.15;;
17696;SDS011;8967;47.984;7.842;2023-01-08T00:48:52;2.67;;;2.08;;
17696;SDS011;8967;47.984;7.842;2023-01-08T00:51:19;3.38;;;2.10;;
17696;SDS011;8967;47.984;7.842;2023-01-08T00:53:48;3.80;;;2.30;;
17696;SDS011;8967;47.984;7.842;2023-01-08T00:56:20;3.83;;;2.15;;
17696;SDS011;8967;47.984;7.842;2023-01-08T00:58:47;2.80;;;2.25;;
17696;SDS011;8967;47.984;7.842;2023-01-08T01:01:14;2.60;;;2.20;;
17696;SDS011;8967;47.984;7.842;2023-01-08T01:03:43;4.13;;;2.40;;
17696;SDS011;8967;47.984;7.842;2023-01-08T01:06:12;4.07;;;2.10;;
17696;SDS011;8967;47.984;7.842;2023-01-08T01:08:39;2.88;;;2.10;;
17696;SDS011;8967;47.984;7.842;2023-01-08T01:11:08;3.55;;;2.00;;
17696;SDS011;8967;47.984;7.842;2023-01-08T01:13:39;4.10;;;1.75;;
17696;SDS011;8967;47.984;7.842;2023-01-08T01:16:08;2.58;;;1.88;;
17696;SDS011;8967;47.984;7.842;2023-01-08T01:18:35;2.70;;;1.85;;
17696;SDS011;8967;47.984;7.842;2023-01-08T01:21:09;3.03;;;1.70;;
17696;SDS011;8967;47.984;7.842;2023-01-08T01:23:37;2.38;;;1.80;;
17696;SDS011;8967;47.984;7.842;2023-01-08T01:26:04;1.77;;;1.67;;
17696;SDS011;8967;47.984;7.842;2023-01-08T01:28:31;1.95;;;1.58;;
17696;SDS011;8967;47.984;7.842;2023-01-08T01:30:58;3.83;;;2.00;;
17696;SDS011;8967;47.984;7.842;2023-01-08T01:33:27;1.92;;;1.70;;
17696;SDS011;8967;47.984;7.842;2023-01-08T01:35:58;4.18;;;2.22;;
17696;SDS011;8967;47.984;7.842;2023-01-08T01:38:28;2.42;;;1.85;;
17696;SDS011;8967;47.984;7.842;2023-01-08T01:40:55;2.33;;;1.50;;
17696;SDS011;8967;47.984;7.842;2023-01-08T01:43:34;3.63;;;1.60;;
17696;SDS011;8967;47.984;7.842;2023-01-08T01:46:02;2.28;;;1.73;;
17696;SDS011;8967;47.984;7.842;2023-01-08T01:48:31;2.70;;;2.38;;
17696;SDS011;8967;47.984;7.842;2023-01-08T01:50:59;1.83;;;1.45;;
17696;SDS011;8967;47.984;7.842;2023-01-08T01:53:26;2.25;;;1.50;;
17696;SDS011;8967;47.984;7.842;2023-01-08T01:55:57;2.42;;;1.55;;
17696;SDS011;8967;47.984;7.842;2023-01-08T01:58:25;1.92;;;1.60;;
17696;SDS011;8967;47.984;7.842;2023-01-08T02:00:55;1.90;;;1.60;;
17696;SDS011;8967;47.984;7.842;2023-01-08T02:03:24;4.15;;;2.25;;
17696;SDS011;8967;47.984;7.842;2023-01-08T02:05:55;2.10;;;1.70;;
17696;SDS011;8967;47.984;7.842;2023-01-08T02:08:27;2.42;;;2.10;;
17696;SDS011;8967;47.984;7.842;2023-01-08T02:11:05;2.42;;;1.90;;
17696;SDS011;8967;47.984;7.842;2023-01-08T02:13:35;2.83;;;1.70;;
17696;SDS011;8967;47.984;7.842;2023-01-08T02:16:07;2.38;;;1.77;;
17696;SDS011;8967;47.984;7.842;2023-01-08T02:18:40;1.80;;;1.60;;
17696;SDS011;8967;47.984;7.842;2023-01-08T02:21:15;5.43;;;2.40;;
17696;SDS011;8967;47.984;7.842;2023-01-08T02:23:49;2.80;;;2.15;;
17696;SDS011;8967;47.984;7.842;2023-01-08T02:26:24;5.82;;;2.33;;
17696;SDS011;8967;47.984;7.842;2023-01-08T02:28:57;2.45;;;2.17;;
17696;SDS011;8967;47.984;7.842;2023-01-08T02:31:29;2.45;;;1.90;;
17696;SDS011;8967;47.984;7.842;2023-01-08T02:33:57;3.08;;;1.67;;
17696;SDS011;8967;47.984;7.842;2023-01-08T02:36:29;2.17;;;1.67;;
17696;SDS011;8967;47.984;7.842;2023-01-08T02:42:08;2.15;;;1.73;;
17696;SDS011;8967;47.984;7.842;2023-01-08T02:44:53;2.22;;;1.75;;
17696;SDS011;8967;47.984;7.842;2023-01-08T02:47:24;3.75;;;2.42;;
17696;SDS011;8967;47.984;7.842;2023-01-08T02:50:00;2.50;;;1.60;;
17696;SDS011;8967;47.984;7.842;2023-01-08T02:52:33;2.15;;;1.80;;
17696;SDS011;8967;47.984;7.842;2023-01-08T02:55:07;4.95;;;1.70;;
17696;SDS011;8967;47.984;7.842;2023-01-08T02:57:37;1.75;;;1.40;;
17696;SDS011;8967;47.984;7.842;2023-01-08T03:00:05;2.55;;;1.60;;
17696;SDS011;8967;47.984;7.842;2023-01-08T03:02:33;4.25;;;1.88;;
17696;SDS011;8967;47.984;7.842;2023-01-08T03:05:06;4.50;;;1.70;;
17696;SDS011;8967;47.984;7.842;2023-01-08T03:07:38;5.90;;;1.50;;
17696;SDS011;8967;47.984;7.842;2023-01-08T03:10:06;1.88;;;1.48;;
17696;SDS011;8967;47.984;7.842;2023-01-08T03:12:39;1.90;;;1.63;;
17696;SDS011;8967;47.984;7.842;2023-01-08T03:15:14;1.52;;;1.42;;
17696;SDS011;8967;47.984;7.842;2023-01-08T03:17:47;1.65;;;1.20;;
17696;SDS011;8967;47.984;7.842;2023-01-08T03:20:18;5.05;;;1.50;;
17696;SDS011;8967;47.984;7.842;2023-01-08T03:22:48;1.63;;;1.30;;
17696;SDS011;8967;47.984;7.842;2023-01-08T03:25:18;1.80;;;1.45;;
17696;SDS011;8967;47.984;7.842;2023-01-08T03:27:50;2.42;;;1.63;;
17696;SDS011;8967;47.984;7.842;2023-01-08T03:30:20;2.80;;;1.50;;
17696;SDS011;8967;47.984;7.842;2023-01-08T03:32:48;1.48;;;1.30;;
17696;SDS011;8967;47.984;7.842;2023-01-08T03:35:18;1.58;;;1.45;;
17696;SDS011;8967;47.984;7.842;2023-01-08T03:37:48;2.97;;;1.80;;
17696;SDS011;8967;47.984;7.842;2023-01-08T03:40:20;2.83;;;1.33;;
17696;SDS011;8967;47.984;7.842;2023-01-08T03:42:52;1.70;;;1.25;;
17696;SDS011;8967;47.984;7.842;2023-01-08T03:45:22;1.50;;;1.35;;
17696;SDS011;8967;47.984;7.842;2023-01-08T03:47:50;1.98;;;1.23;;
17696;SDS011;8967;47.984;7.842;2023-01-08T03:50:20;1.90;;;1.38;;
17696;SDS011;8967;47.984;7.842;2023-01-08T03:52:50;2.35;;;1.50;;
17696;SDS011;8967;47.984;7.842;2023-01-08T03:55:17;1.50;;;1.30;;
17696;SDS011;8967;47.984;7.842;2023-01-08T03:57:44;1.20;;;1.10;;
17696;SDS011;8967;47.984;7.842;2023-01-08T04:00:14;4.25;;;1.50;;
17696;SDS011;8967;47.984;7.842;2023-01-08T04:02:41;2.92;;;1.50;;
17696;SDS011;8967;47.984;7.842;2023-01-08T04:05:08;4.70;;;1.42;;
17696;SDS011;8967;47.984;7.842;2023-01-08T04:07:36;1.65;;;1.55;;
17696;SDS011;8967;47.984;7.842;2023-01-08T04:10:03;2.90;;;1.65;;
17696;SDS011;8967;47.984;7.842;2023-01-08T04:12:30;1.20;;;1.10;;
17696;SDS011;8967;47.984;7.842;2023-01-08T04:14:57;4.30;;;1.50;;
17696;SDS011;8967;47.984;7.842;2023-01-08T04:17:26;2.50;;;1.38;;
17696;SDS011;8967;47.984;7.842;2023-01-08T04:19:52;3.90;;;1.40;;
17696;SDS011;8967;47.984;7.842;2023-01-08T04:22:19;1.50;;;1.40;;
17696;SDS011;8967;47.984;7.842;2023-01-08T04:24:46;3.33;;;1.48;;
17696;SDS011;8967;47.984;7.842;2023-01-08T04:27:13;1.88;;;1.38;;
17696;SDS011;8967;47.984;7.842;2023-01-08T04:29:40;2.70;;;1.67;;
17696;SDS011;8967;47.984;7.842;2023-01-08T04:32:07;4.00;;;1.45;;
17696;SDS011;8967;47.984;7.842;2023-01-08T04:34:35;3.72;;;1.48;;
17696;SDS011;8967;47.984;7.842;2023-01-08T04:37:02;2.17;;;1.48;;
17696;SDS011;8967;47.984;7.842;2023-01-08T04:39:29;2.70;;;1.55;;
17696;SDS011;8967;47.984;7.842;2023-01-08T04:41:56;2.13;;;1.38;;
17696;SDS011;8967;47.984;7.842;2023-01-08T04:44:23;1.75;;;1.27;;
17696;SDS011;8967;47.984;7.842;2023-01-08T04:46:50;4.50;;;1.60;;
17696;SDS011;8967;47.984;7.842;2023-01-08T04:49:17;2.70;;;1.45;;
17696;SDS011;8967;47.984;7.842;2023-01-08T04:51:48;1.45;;;1.33;;
17696;SDS011;8967;47.984;7.842;2023-01-08T04:54:15;1.50;;;1.40;;
17696;SDS011;8967;47.984;7.842;2023-01-08T04:56:42;3.35;;;1.38;;
17696;SDS011;8967;47.984;7.842;2023-01-08T04:59:09;1.25;;;1.08;;
17696;SDS011;8967;47.984;7.842;2023-01-08T05:01:35;1.85;;;1.30;;
17696;SDS011;8967;47.984;7.842;2023-01-08T05:04:03;2.03;;;1.27;;
17696;SDS011;8967;47.984;7.842;2023-01-08T05:06:33;2.00;;;1.40;;
17696;SDS011;8967;47.984;7.842;2023-01-08T05:09:02;2.30;;;1.40;;
17696;SDS011;8967;47.984;7.842;2023-01-08T05:11:29;1.88;;;1.10;;
17696;SDS011;8967;47.984;7.842;2023-01-08T05:13:56;3.00;;;1.23;;
17696;SDS011;8967;47.984;7.842;2023-01-08T05:16:23;3.58;;;1.20;;
17696;SDS011;8967;47.984;7.842;2023-01-08T05:18:50;2.00;;;1.50;;
17696;SDS011;8967;47.984;7.842;2023-01-08T05:21:17;2.85;;;1.38;;
17696;SDS011;8967;47.984;7.842;2023-01-08T05:23:44;3.40;;;1.40;;
17696;SDS011;8967;47.984;7.842;2023-01-08T05:26:14;4.22;;;1.40;;
17696;SDS011;8967;47.984;7.842;2023-01-08T05:28:43;2.33;;;1.45;;
17696;SDS011;8967;47.984;7.842;2023-01-08T05:31:10;1.83;;;1.40;;
17696;SDS011;8967;47.984;7.842;2023-01-08T05:33:37;1.92;;;1.63;;
17696;SDS011;8967;47.984;7.842;2023-01-08T05:36:07;2.58;;;1.65;;
17696;SDS011;8967;47.984;7.842;2023-01-08T05:38:36;2.83;;;1.98;;
17696;SDS011;8967;47.984;7.842;2023-01-08T05:41:03;1.85;;;1.45;;
17696;SDS011;8967;47.984;7.842;2023-01-08T05:43:32;1.52;;;1.42;;
17696;SDS011;8967;47.984;7.842;2023-01-08T05:46:02;4.95;;;1.63;;
17696;SDS011;8967;47.984;7.842;2023-01-08T05:48:31;2.00;;;1.40;;
17696;SDS011;8967;47.984;7.842;2023-01-08T05:50:59;1.92;;;1.27;;
17696;SDS011;8967;47.984;7.842;2023-01-08T05:53:26;0.85;;;0.80;;
17696;SDS011;8967;47.984;7.842;2023-01-08T05:55:59;1.02;;;0.98;;
17696;SDS011;8967;47.984;7.842;2023-01-08T05:58:27;1.30;;;1.20;;
17696;SDS011;8967;47.984;7.842;2023-01-08T06:01:01;2.08;;;0.60;;
17696;SDS011;8967;47.984;7.842;2023-01-08T06:03:30;0.77;;;0.65;;
17696;SDS011;8967;47.984;7.842;2023-01-08T06:05:59;0.80;;;0.80;;
17696;SDS011;8967;47.984;7.842;2023-01-08T06:08:27;0.85;;;0.85;;
17696;SDS011;8967;47.984;7.842;2023-01-08T06:10:57;0.80;;;0.65;;
17696;SDS011;8967;47.984;7.842;2023-01-08T06:13:25;0.60;;;0.60;;
17696;SDS011;8967;47.984;7.842;2023-01-08T06:15:52;0.68;;;0.68;;
17696;SDS011;8967;47.984;7.842;2023-01-08T06:18:20;0.77;;;0.60;;
17696;SDS011;8967;47.984;7.842;2023-01-08T06:20:47;1.58;;;0.70;;
17696;SDS011;8967;47.984;7.842;2023-01-08T06:23:14;0.77;;;0.60;;
17696;SDS011;8967;47.984;7.842;2023-01-08T06:25:41;0.90;;;0.60;;
17696;SDS011;8967;47.984;7.842;2023-01-08T06:28:10;0.47;;;0.47;;
17696;SDS011;8967;47.984;7.842;2023-01-08T06:30:37;1.00;;;0.60;;
17696;SDS011;8967;47.984;7.842;2023-01-08T06:33:04;0.43;;;0.43;;
17696;SDS011;8967;47.984;7.842;2023-01-08T06:35:32;0.50;;;0.50;;
17696;SDS011;8967;47.984;7.842;2023-01-08T06:37:59;0.57;;;0.50;;
17696;SDS011;8967;47.984;7.842;2023-01-08T06:40:26;0.50;;;0.50;;
17696;SDS011;8967;47.984;7.842;2023-01-08T06:42:55;1.55;;;0.60;;
17696;SDS011;8967;47.984;7.842;2023-01-08T06:45:26;0.52;;;0.52;;
17696;SDS011;8967;47.984;7.842;2023-01-08T06:47:53;0.60;;;0.60;;
17696;SDS011;8967;47.984;7.842;2023-01-08T06:50:20;1.05;;;0.50;;
17696;SDS011;8967;47.984;7.842;2023-01-08T06:52:51;0.80;;;0.55;;
17696;SDS011;8967;47.984;7.842;2023-01-08T06:55:19;1.58;;;0.60;;
17696;SDS011;8967;47.984;7.842;2023-01-08T06:57:46;0.60;;;0.50;;
17696;SDS011;8967;47.984;7.842;2023-01-08T07:00:13;0.50;;;0.50;;
17696;SDS011;8967;47.984;7.842;2023-01-08T07:02:41;0.88;;;0.47;;
17696;SDS011;8967;47.984;7.842;2023-01-08T07:05:08;0.52;;;0.45;;
17696;SDS011;8967;47.984;7.842;2023-01-08T07:07:35;0.80;;;0.80;;
17696;SDS011;8967;47.984;7.842;2023-01-08T07:10:03;0.55;;;0.55;;
17696;SDS011;8967;47.984;7.842;2023-01-08T07:12:31;2.58;;;0.70;;
17696;SDS011;8967;47.984;7.842;2023-01-08T07:14:57;0.50;;;0.50;;
17696;SDS011;8967;47.984;7.842;2023-01-08T07:17:27;0.55;;;0.55;;
17696;SDS011;8967;47.984;7.842;2023-01-08T07:19:54;0.65;;;0.50;;
17696;SDS011;8967;47.984;7.842;2023-01-08T07:22:21;1.55;;;0.57;;
17696;SDS011;8967;47.984;7.842;2023-01-08T07:24:50;1.90;;;0.60;;
17696;SDS011;8967;47.984;7.842;2023-01-08T07:27:19;0.47;;;0.47;;
17696;SDS011;8967;47.984;7.842;2023-01-08T07:29:45;1.08;;;0.80;;
17696;SDS011;8967;47.984;7.842;2023-01-08T07:32:15;0.75;;;0.70;;
17696;SDS011;8967;47.984;7.842;2023-01-08T07:34:42;0.50;;;0.50;;
17696;SDS011;8967;47.984;7.842;2023-01-08T07:37:11;0.82;;;0.70;;
17696;SDS011;8967;47.984;7.842;2023-01-08T07:39:43;0.68;;;0.65;;
17696;SDS011;8967;47.984;7.842;2023-01-08T07:42:10;0.60;;;0.50;;
17696;SDS011;8967;47.984;7.842;2023-01-08T07:44:38;0.60;;;0.57;;
17696;SDS011;8967;47.984;7.842;2023-01-08T07:47:05;2.25;;;0.90;;
17696;SDS011;8967;47.984;7.842;2023-01-08T07:49:32;0.63;;;0.60;;
17696;SDS011;8967;47.984;7.842;2023-01-08T07:51:59;1.73;;;0.68;;
17696;SDS011;8967;47.984;7.842;2023-01-08T07:54:28;0.40;;;0.40;;
17696;SDS011;8967;47.984;7.842;2023-01-08T07:56:55;2.42;;;0.70;;
17696;SDS011;8967;47.984;7.842;2023-01-08T07:59:22;0.80;;;0.80;;
17696;SDS011;8967;47.984;7.842;2023-01-08T08:01:50;0.60;;;0.38;;
17696;SDS011;8967;47.984;7.842;2023-01-08T08:04:17;0.93;;;0.70;;
17696;SDS011;8967;47.984;7.842;2023-01-08T08:06:44;0.50;;;0.50;;
17696;SDS011;8967;47.984;7.842;2023-01-08T08:09:13;0.85;;;0.73;;
17696;SDS011;8967;47.984;7.842;2023-01-08T08:11:40;0.60;;;0.60;;
17696;SDS011;8967;47.984;7.842;2023-01-08T08:14:08;0.98;;;0.70;;
17696;SDS011;8967;47.984;7.842;2023-01-08T08:16:35;1.48;;;0.40;;
17696;SDS011;8967;47.984;7.842;2023-01-08T08:19:04;1.00;;;0.60;;
17696;SDS011;8967;47.984;7.842;2023-01-08T08:21:31;2.15;;;0.80;;
17696;SDS011;8967;47.984;7.842;2023-01-08T08:23:58;0.70;;;0.70;;
17696;SDS011;8967;47.984;7.842;2023-01-08T08:26:25;1.10;;;0.90;;
17696;SDS011;8967;47.984;7.842;2023-01-08T08:28:52;0.50;;;0.50;;
17696;SDS011;8967;47.984;7.842;2023-01-08T08:31:19;0.70;;;0.70;;
17696;SDS011;8967;47.984;7.842;2023-01-08T08:33:46;1.08;;;0.68;;
17696;SDS011;8967;47.984;7.842;2023-01-08T08:36:14;0.65;;;0.52;;
17696;SDS011;8967;47.984;7.842;2023-01-08T08:38:41;0.70;;;0.70;;
17696;SDS011;8967;47.984;7.842;2023-01-08T08:41:08;0.50;;;0.50;;
17696;SDS011;8967;47.984;7.842;2023-01-08T08:43:37;0.60;;;0.60;;
17696;SDS011;8967;47.984;7.842;2023-01-08T08:46:06;3.40;;;0.57;;
17696;SDS011;8967;47.984;7.842;2023-01-08T08:48:33;0.90;;;0.50;;
17696;SDS011;8967;47.984;7.842;2023-01-08T08:51:03;2.10;;;0.55;;
17696;SDS011;8967;47.984;7.842;2023-01-08T08:53:31;2.28;;;0.50;;
17696;SDS011;8967;47.984;7.842;2023-01-08T08:55:58;0.60;;;0.60;;
17696;SDS011;8967;47.984;7.842;2023-01-08T08:58:25;0.93;;;0.70;;
17696;SDS011;8967;47.984;7.842;2023-01-08T09:00:52;0.73;;;0.52;;
17696;SDS011;8967;47.984;7.842;2023-01-08T09:03:19;0.70;;;0.70;;
17696;SDS011;8967;47.984;7.842;2023-01-08T09:05:46;0.63;;;0.63;;
17696;SDS011;8967;47.984;7.842;2023-01-08T09:08:13;0.40;;;0.40;;
17696;SDS011;8967;47.984;7.842;2023-01-08T09:10:41;1.15;;;0.47;;
17696;SDS011;8967;47.984;7.842;2023-01-08T09:13:08;0.52;;;0.45;;
17696;SDS011;8967;47.984;7.842;2023-01-08T09:15:35;0.30;;;0.30;;
17696;SDS011;8967;47.984;7.842;2023-01-08T09:18:02;1.55;;;0.55;;
17696;SDS011;8967;47.984;7.842;2023-01-08T09:20:30;0.38;;;0.38;;
17696;SDS011;8967;47.984;7.842;2023-01-08T09:22:59;0.40;;;0.40;;
17696;SDS011;8967;47.984;7.842;2023-01-08T09:25:27;0.20;;;0.20;;
17696;SDS011;8967;47.984;7.842;2023-01-08T09:27:59;0.30;;;0.30;;
17696;SDS011;8967;47.984;7.842;2023-01-08T09:30:27;0.85;;;0.52;;
17696;SDS011;8967;47.984;7.842;2023-01-08T09:32:57;0.40;;;0.30;;
17696;SDS011;8967;47.984;7.842;2023-01-08T09:35:25;0.30;;;0.30;;
17696;SDS011;8967;47.984;7.842;2023-01-08T09:37:52;0.40;;;0.40;;
17696;SDS011;8967;47.984;7.842;2023-01-08T09:40:20;0.20;;;0.20;;
17696;SDS011;8967;47.984;7.842;2023-01-08T09:42:54;0.25;;;0.25;;
17696;SDS011;8967;47.984;7.842;2023-01-08T09:45:25;0.20;;;0.20;;
17696;SDS011;8967;47.984;7.842;2023-01-08T09:47:53;0.20;;;0.20;;
17696;SDS011;8967;47.984;7.842;2023-01-08T09:50:21;0.20;;;0.20;;
17696;SDS011;8967;47.984;7.842;2023-01-08T09:52:51;0.20;;;0.20;;
17696;SDS011;8967;47.984;7.842;2023-01-08T09:55:18;0.38;;;0.17;;
17696;SDS011;8967;47.984;7.842;2023-01-08T09:57:46;0.20;;;0.20;;
17696;SDS011;8967;47.984;7.842;2023-01-08T10:00:14;0.20;;;0.20;;
17696;SDS011;8967;47.984;7.842;2023-01-08T10:02:45;0.20;;;0.20;;
17696;SDS011;8967;47.984;7.842;2023-01-08T10:05:13;0.20;;;0.10;;
17696;SDS011;8967;47.984;7.842;2023-01-08T10:07:41;0.20;;;0.20;;
17696;SDS011;8967;47.984;7.842;2023-01-08T10:10:15;0.20;;;0.20;;
17696;SDS011;8967;47.984;7.842;2023-01-08T10:12:44;0.52;;;0.30;;
17696;SDS011;8967;47.984;7.842;2023-01-08T10:15:13;0.20;;;0.20;;
17696;SDS011;8967;47.984;7.842;2023-01-08T10:17:46;0.30;;;0.25;;
17696;SDS011;8967;47.984;7.842;2023-01-08T10:20:17;0.30;;;0.30;;
17696;SDS011;8967;47.984;7.842;2023-01-08T10:22:45;3.00;;;0.60;;
17696;SDS011;8967;47.984;7.842;2023-01-08T10:25:14;0.50;;;0.50;;
17696;SDS011;8967;47.984;7.842;2023-01-08T10:27:46;0.65;;;0.55;;
17696;SDS011;8967;47.984;7.842;2023-01-08T10:30:15;0.40;;;0.40;;
17696;SDS011;8967;47.984;7.842;2023-01-08T10:32:49;0.65;;;0.65;;
17696;SDS011;8967;47.984;7.842;2023-01-08T10:35:19;1.00;;;0.82;;
17696;SDS011;8967;47.984;7.842;2023-01-08T10:37:47;1.10;;;1.00;;
17696;SDS011;8967;47.984;7.842;2023-01-08T10:40:23;1.08;;;0.98;;
17696;SDS011;8967;47.984;7.842;2023-01-08T10:42:55;0.50;;;0.50;;
17696;SDS011;8967;47.984;7.842;2023-01-08T10:45:24;0.43;;;0.43;;
17696;SDS011;8967;47.984;7.842;2023-01-08T10:47:55;0.55;;;0.50;;
17696;SDS011;8967;47.984;7.842;2023-01-08T10:50:26;0.85;;;0.73;;
17696;SDS011;8967;47.984;7.842;2023-01-08T10:52:55;0.35;;;0.32;;
17696;SDS011;8967;47.984;7.842;2023-01-08T10:55:25;0.38;;;0.38;;
17696;SDS011;8967;47.984;7.842;2023-01-08T10:57:55;0.28;;;0.20;;
17696;SDS011;8967;47.984;7.842;2023-01-08T11:00:24;0.15;;;0.15;;
17696;SDS011;8967;47.984;7.842;2023-01-08T11:02:56;0.30;;;0.30;;
17696;SDS011;8967;47.984;7.842;2023-01-08T11:05:29;0.52;;;0.40;;
17696;SDS011;8967;47.984;7.842;2023-01-08T11:07:59;0.22;;;0.20;;
17696;SDS011;8967;47.984;7.842;2023-01-08T11:10:29;0.30;;;0.30;;
17696;SDS011;8967;47.984;7.842;2023-01-08T11:12:59;0.88;;;0.40;;
17696;SDS011;8967;47.984;7.842;2023-01-08T11:15:30;0.28;;;0.28;;
17696;SDS011;8967;47.984;7.842;2023-01-08T11:18:04;0.30;;;0.30;;
17696;SDS011;8967;47.984;7.842;2023-01-08T11:20:33;1.02;;;0.52;;
17696;SDS011;8967;47.984;7.842;2023-01-08T11:23:04;0.50;;;0.40;;
17696;SDS011;8967;47.984;7.842;2023-01-08T11:25:31;0.20;;;0.20;;
17696;SDS011;8967;47.984;7.842;2023-01-08T11:28:00;0.43;;;0.43;;
17696;SDS011;8967;47.984;7.842;2023-01-08T11:30:29;0.20;;;0.20;;
17696;SDS011;8967;47.984;7.842;2023-01-08T11:33:03;1.13;;;0.40;;
17696;SDS011;8967;47.984;7.842;2023-01-08T11:35:35;0.57;;;0.20;;
17696;SDS011;8967;47.984;7.842;2023-01-08T11:38:06;0.32;;;0.30;;
17696;SDS011;8967;47.984;7.842;2023-01-08T11:40:38;0.40;;;0.40;;
17696;SDS011;8967;47.984;7.842;2023-01-08T11:43:16;1.75;;;0.32;;
17696;SDS011;8967;47.984;7.842;2023-01-08T11:45:52;0.30;;;0.30;;
17696;SDS011;8967;47.984;7.842;2023-01-08T11:48:36;0.20;;;0.20;;
17696;SDS011;8967;47.984;7.842;2023-01-08T11:51:25;0.45;;;0.38;;
17696;SDS011;8967;47.984;7.842;2023-01-08T11:54:05;0.38;;;0.28;;
17696;SDS011;8967;47.984;7.842;2023-01-08T11:56:46;0.30;;;0.30;;
17696;SDS011;8967;47.984;7.842;2023-01-08T11:59:22;0.43;;;0.30;;
17696;SDS011;8967;47.984;7.842;2023-01-08T12:02:00;1.20;;;0.55;;
17696;SDS011;8967;47.984;7.842;2023-01-08T12:04:53;0.60;;;0.60;;
17696;SDS011;8967;47.984;7.842;2023-01-08T12:07:44;1.98;;;1.45;;
17696;SDS011;8967;47.984;7.842;2023-01-08T12:10:22;1.35;;;1.20;;
17696;SDS011;8967;47.984;7.842;2023-01-08T12:12:58;0.90;;;0.80;;
17696;SDS011;8967;47.984;7.842;2023-01-08T12:15:38;2.38;;;0.60;;
17696;SDS011;8967;47.984;7.842;2023-01-08T12:18:18;0.30;;;0.30;;
17696;SDS011;8967;47.984;7.842;2023-01-08T12:21:02;0.30;;;0.22;;
17696;SDS011;8967;47.984;7.842;2023-01-08T12:23:39;0.30;;;0.30;;
17696;SDS011;8967;47.984;7.842;2023-01-08T12:26:28;0.80;;;0.60;;
17696;SDS011;8967;47.984;7.842;2023-01-08T12:29:08;0.82;;;0.50;;
17696;SDS011;8967;47.984;7.842;2023-01-08T12:31:57;0.60;;;0.30;;
17696;SDS011;8967;47.984;7.842;2023-01-08T12:34:45;0.75;;;0.40;;
17696;SDS011;8967;47.984;7.842;2023-01-08T12:37:22;0.38;;;0.30;;
17696;SDS011;8967;47.984;7.842;2023-01-08T12:39:53;0.30;;;0.30;;
17696;SDS011;8967;47.984;7.842;2023-01-08T12:42:26;0.35;;;0.30;;
17696;SDS011;8967;47.984;7.842;2023-01-08T12:44:56;0.20;;;0.20;;
17696;SDS011;8967;47.984;7.842;2023-01-08T12:47:26;1.45;;;0.43;;
17696;SDS011;8967;47.984;7.842;2023-01-08T12:50:00;0.82;;;0.30;;
17696;SDS011;8967;47.984;7.842;2023-01-08T12:52:49;0.30;;;0.30;;
17696;SDS011;8967;47.984;7.842;2023-01-08T12:55:25;0.40;;;0.40;;
17696;SDS011;8967;47.984;7.842;2023-01-08T12:57:59;1.35;;;0.28;;
17696;SDS011;8967;47.984;7.842;2023-01-08T13:00:36;0.30;;;0.30;;
17696;SDS011;8967;47.984;7.842;2023-01-08T13:03:09;1.63;;;0.40;;
17696;SDS011;8967;47.984;7.842;2023-01-08T13:05:39;0.60;;;0.50;;
17696;SDS011;8967;47.984;7.842;2023-01-08T13:08:20;0.75;;;0.60;;
17696;SDS011;8967;47.984;7.842;2023-01-08T13:10:53;0.50;;;0.50;;
17696;SDS011;8967;47.984;7.842;2023-01-08T13:13:24;0.50;;;0.50;;
17696;SDS011;8967;47.984;7.842;2023-01-08T13:16:03;0.65;;;0.65;;
17696;SDS011;8967;47.984;7.842;2023-01-08T13:18:34;1.02;;;0.80;;
17696;SDS011;8967;47.984;7.842;2023-01-08T13:21:02;1.30;;;1.13;;
17696;SDS011;8967;47.984;7.842;2023-01-08T13:23:32;1.58;;;1.00;;
17696;SDS011;8967;47.984;7.842;2023-01-08T13:26:01;1.20;;;1.10;;
17696;SDS011;8967;47.984;7.842;2023-01-08T13:28:38;1.35;;;1.10;;
17696;SDS011;8967;47.984;7.842;2023-01-08T13:31:12;1.45;;;1.10;;
17696;SDS011;8967;47.984;7.842;2023-01-08T13:33:52;2.28;;;1.52;;
17696;SDS011;8967;47.984;7.842;2023-01-08T13:36:23;2.05;;;1.40;;
17696;SDS011;8967;47.984;7.842;2023-01-08T13:39:02;1.30;;;1.20;;
17696;SDS011;8967;47.984;7.842;2023-01-08T13:41:54;4.82;;;2.35;;
17696;SDS011;8967;47.984;7.842;2023-01-08T13:44:30;4.43;;;2.10;;
17696;SDS011;8967;47.984;7.842;2023-01-08T13:47:00;1.35;;;1.25;;
17696;SDS011;8967;47.984;7.842;2023-01-08T13:49:31;2.40;;;1.55;;
17696;SDS011;8967;47.984;7.842;2023-01-08T13:52:01;2.00;;;1.30;;
17696;SDS011;8967;47.984;7.842;2023-01-08T13:54:32;3.15;;;1.40;;
17696;SDS011;8967;47.984;7.842;2023-01-08T13:57:05;2.22;;;1.63;;
17696;SDS011;8967;47.984;7.842;2023-01-08T13:59:38;1.70;;;1.20;;
17696;SDS011;8967;47.984;7.842;2023-01-08T14:02:26;1.98;;;1.25;;
17696;SDS011;8967;47.984;7.842;2023-01-08T14:04:55;2.67;;;1.30;;
17696;SDS011;8967;47.984;7.842;2023-01-08T14:07:23;2.35;;;1.23;;
17696;SDS011;8967;47.984;7.842;2023-01-08T14:10:04;1.90;;;1.30;;
17696;SDS011;8967;47.984;7.842;2023-01-08T14:12:33;1.38;;;0.80;;
17696;SDS011;8967;47.984;7.842;2023-01-08T14:15:00;1.73;;;1.20;;
17696;SDS011;8967;47.984;7.842;2023-01-08T14:17:29;1.17;;;1.08;;
17696;SDS011;8967;47.984;7.842;2023-01-08T14:19:57;1.52;;;1.20;;
17696;SDS011;8967;47.984;7.842;2023-01-08T14:22:25;1.15;;;0.90;;
17696;SDS011;8967;47.984;7.842;2023-01-08T14:25:00;2.40;;;0.85;;
17696;SDS011;8967;47.984;7.842;2023-01-08T14:27:30;1.00;;;0.90;;
17696;SDS011;8967;47.984;7.842;2023-01-08T14:29:59;1.00;;;0.73;;
17696;SDS011;8967;47.984;7.842;2023-01-08T14:32:29;1.13;;;0.88;;
17696;SDS011;8967;47.984;7.842;2023-01-08T14:34:56;1.85;;;1.23;;
17696;SDS011;8967;47.984;7.842;2023-01-08T14:37:24;1.50;;;0.70;;
17696;SDS011;8967;47.984;7.842;2023-01-08T14:39:51;2.58;;;1.05;;
17696;SDS011;8967;47.984;7.842;2023-01-08T14:42:23;1.60;;;1.10;;
17696;SDS011;8967;47.984;7.842;2023-01-08T14:45:15;1.15;;;0.90;;
17696;SDS011;8967;47.984;7.842;2023-01-08T14:47:44;2.55;;;1.65;;
17696;SDS011;8967;47.984;7.842;2023-01-08T14:50:17;1.40;;;1.30;;
17696;SDS011;8967;47.984;7.842;2023-01-08T14:52:46;2.25;;;1.30;;
17696;SDS011;8967;47.984;7.842;2023-01-08T14:55:14;1.80;;;1.45;;
17696;SDS011;8967;47.984;7.842;2023-01-08T14:57:45;2.38;;;1.88;;
17696;SDS011;8967;47.984;7.842;2023-01-08T15:00:15;1.75;;;1.60;;
17696;SDS011;8967;47.984;7.842;2023-01-08T15:02:43;3.42;;;2.13;;
17696;SDS011;8967;47.984;7.842;2023-01-08T15:05:14;4.45;;;1.70;;
17696;SDS011;8967;47.984;7.842;2023-01-08T15:07:59;2.13;;;1.92;;
17696;SDS011;8967;47.984;7.842;2023-01-08T15:10:31;2.13;;;1.92;;
17696;SDS011;8967;47.984;7.842;2023-01-08T15:13:01;2.30;;;1.50;;
17696;SDS011;8967;47.984;7.842;2023-01-08T15:15:32;2.03;;;1.77;;
17696;SDS011;8967;47.984;7.842;2023-01-08T15:18:03;1.75;;;1.60;;
17696;SDS011;8967;47.984;7.842;2023-01-08T15:20:32;2.05;;;1.55;;
17696;SDS011;8967;47.984;7.842;2023-01-08T15:23:00;3.40;;;1.73;;